createdAt,value
2018-09-20T00:02:41.626Z,9.57
2018-09-20T00:08:39.388Z,9.15
2018-09-20T00:14:31.617Z,9.48
2018-09-20T00:20:28.185Z,8.54
2018-09-20T00:26:21.603Z,11.05
2018-09-20T00:32:18.629Z,9.74
2018-09-20T00:38:13.577Z,9.47
2018-09-20T00:44:08.226Z,9.5
2018-09-20T00:50:01.642Z,8.96
2018-09-20T00:55:58.673Z,11.21
2018-09-20T01:01:55.663Z,8.42
2018-09-20T01:07:50.677Z,10.98
2018-09-20T01:13:45.654Z,10.62
2018-09-20T01:19:40.720Z,14.36
2018-09-20T01:25:35.680Z,10.12
2018-09-20T01:31:26.733Z,9.24
2018-09-20T01:37:21.826Z,12.04
2018-09-20T01:43:16.694Z,9.81
2018-09-20T01:49:11.663Z,12.13
2018-09-20T01:55:06.691Z,11.33
2018-09-20T02:01:05.788Z,12.61
2018-09-20T02:06:56.685Z,9.83
2018-09-20T02:12:51.767Z,12.82
2018-09-20T02:18:46.698Z,10.37
2018-09-20T02:24:41.691Z,10.51
2018-09-20T02:30:36.716Z,9.05
2018-09-20T02:36:31.723Z,10.61
2018-09-20T02:42:26.750Z,11.42
2018-09-20T02:48:21.760Z,8.68
2018-09-20T02:54:16.735Z,8.58
2018-09-20T03:00:11.771Z,10.86
2018-09-20T03:06:06.734Z,10.12
2018-09-20T03:12:01.790Z,11.37
2018-09-20T03:17:56.733Z,9.69
2018-09-20T03:23:51.804Z,11.75
2018-09-20T03:29:46.796Z,11.9
2018-09-20T03:35:41.821Z,9.3
2018-09-20T03:41:36.800Z,12.74
2018-09-20T03:47:31.804Z,9.33
2018-09-20T03:53:26.886Z,9.92
2018-09-20T03:59:21.837Z,10.82
2018-09-20T04:05:16.782Z,9.54
2018-09-20T04:11:11.846Z,10.78
2018-09-20T04:17:06.804Z,10.73
2018-09-20T04:23:01.836Z,12.45
2018-09-20T04:28:56.858Z,9.03
2018-09-20T04:34:51.836Z,12.28
2018-09-20T04:40:46.827Z,11.08
2018-09-20T04:46:41.837Z,9.87
2018-09-20T04:52:36.859Z,12.26
2018-09-20T04:58:31.894Z,8.7
2018-09-20T05:04:26.873Z,14.21
2018-09-20T05:10:21.910Z,12.03
2018-09-20T05:16:16.896Z,10.92
2018-09-20T05:22:11.864Z,10.72
2018-09-20T05:28:06.924Z,8.39
2018-09-20T05:34:05.949Z,12.76
2018-09-20T05:39:56.911Z,11.47
2018-09-20T05:45:51.917Z,8.67
2018-09-20T05:51:46.932Z,9.57
2018-09-20T05:57:41.917Z,13.65
2018-09-20T06:03:36.899Z,12.58
2018-09-20T06:09:31.932Z,13.56
2018-09-20T06:15:26.922Z,16.57
2018-09-20T06:21:21.995Z,17.61
2018-09-20T06:27:16.919Z,14.77
2018-09-20T06:33:11.933Z,16.55
2018-09-20T06:39:06.989Z,10.67
2018-09-20T06:45:01.949Z,10.55
2018-09-20T06:50:56.986Z,10.71
2018-09-20T06:56:52.012Z,9.24
2018-09-20T07:02:47.029Z,10.43
2018-09-20T07:08:41.977Z,10.72
2018-09-20T07:14:37.014Z,9.11
2018-09-20T07:20:31.974Z,14.87
2018-09-20T07:26:26.995Z,10.77
2018-09-20T07:32:22.004Z,11.58
2018-09-20T07:38:16.988Z,10.02
2018-09-20T07:44:12.011Z,11.35
2018-09-20T07:50:06.990Z,8.96
2018-09-20T07:56:02.026Z,9.64
2018-09-20T08:01:57.086Z,10.11
2018-09-20T08:07:52.014Z,11.78
2018-09-20T08:13:47.028Z,9.11
2018-09-20T08:19:42.053Z,9.93
2018-09-20T08:25:37.086Z,9.16
2018-09-20T08:31:32.082Z,9.57
2018-09-20T08:37:27.138Z,8.72
2018-09-20T08:43:22.085Z,8.36
2018-09-20T08:49:17.067Z,7.44
2018-09-20T08:55:12.115Z,8.85
2018-09-20T09:01:07.085Z,7.89
2018-09-20T09:07:02.079Z,8.42
2018-09-20T09:12:57.092Z,7.15
2018-09-20T09:18:52.091Z,6.54
2018-09-20T09:24:47.119Z,7.22
2018-09-20T09:30:42.244Z,6.27
2018-09-20T09:36:37.129Z,7.34
2018-09-20T09:42:32.138Z,5.8
2018-09-20T09:48:27.153Z,6.27
2018-09-20T09:54:22.184Z,5.91
2018-09-20T10:00:17.165Z,6.32
2018-09-20T10:06:12.155Z,8.94
2018-09-20T10:12:07.158Z,11.8
2018-09-20T10:18:02.146Z,5.79
2018-09-20T10:23:57.218Z,6.58
2018-09-20T10:29:52.168Z,6.11
2018-09-20T10:35:47.215Z,6.46
2018-09-20T10:41:42.216Z,7.33
2018-09-20T10:47:37.262Z,5.83
2018-09-20T10:53:32.220Z,6.7
2018-09-20T10:59:27.189Z,6.57
2018-09-20T11:05:22.227Z,5.36
2018-09-20T11:11:17.228Z,5.77
2018-09-20T11:17:12.209Z,6.82
2018-09-20T11:23:07.232Z,5.13
2018-09-20T11:29:02.274Z,5.55
2018-09-20T11:34:57.276Z,5.24
2018-09-20T11:40:52.253Z,5.3
2018-09-20T11:46:47.411Z,9.15
2018-09-20T11:52:42.241Z,4.95
2018-09-20T11:58:37.266Z,5.5
2018-09-20T12:04:32.277Z,9.71
2018-09-20T12:10:27.272Z,5.28
2018-09-20T12:16:22.341Z,4.82
2018-09-20T12:22:17.318Z,6.81
2018-09-20T12:28:12.337Z,4.48
2018-09-20T12:34:07.284Z,5.29
2018-09-20T12:40:02.304Z,4.87
2018-09-20T12:45:57.298Z,5.3
2018-09-20T12:51:52.357Z,6.7
2018-09-20T12:57:47.322Z,5.32
2018-09-20T13:03:42.360Z,5.19
2018-09-20T13:09:37.361Z,4.68
2018-09-20T13:15:32.346Z,4.49
2018-09-20T13:21:27.361Z,8.27
2018-09-20T13:27:22.358Z,4.95
2018-09-20T13:33:17.359Z,4.49
2018-09-20T13:39:12.412Z,5.19
2018-09-20T13:45:07.374Z,5.06
2018-09-20T13:51:02.412Z,4.94
2018-09-20T13:56:57.392Z,6.29
2018-09-20T14:02:52.380Z,5.56
2018-09-20T14:08:47.391Z,4.68
2018-09-20T14:14:42.420Z,4.62
2018-09-20T14:20:37.429Z,4.94
2018-09-20T14:26:32.422Z,6.49
2018-09-20T14:32:27.413Z,4.92
2018-09-20T14:38:22.419Z,4.73
2018-09-20T14:44:17.444Z,4.33
2018-09-20T14:50:12.507Z,5.5
2018-09-20T14:56:07.447Z,4.19
2018-09-20T15:02:02.591Z,4.29
2018-09-20T15:07:57.433Z,4.45
2018-09-20T15:13:52.454Z,4.68
2018-09-20T15:19:47.459Z,4.82
2018-09-20T15:25:42.473Z,4.57
2018-09-20T15:31:37.477Z,6.44
2018-09-20T15:37:32.486Z,4.82
2018-09-20T15:43:27.492Z,5.22
2018-09-20T15:49:22.516Z,6.43
2018-09-20T15:55:17.490Z,5.07
2018-09-20T16:01:12.510Z,5.22
2018-09-20T16:07:07.517Z,6.46
2018-09-20T16:13:02.515Z,5.47
2018-09-20T16:18:57.563Z,8.87
2018-09-20T16:24:52.527Z,6.42
2018-09-20T16:30:47.608Z,6.19
2018-09-20T16:36:42.544Z,6.77
2018-09-20T16:42:37.565Z,7.72
2018-09-20T16:48:32.620Z,7.49
2018-09-20T16:54:27.547Z,7.98
2018-09-20T17:00:22.573Z,7.15
2018-09-20T17:06:17.649Z,6.87
2018-09-20T17:12:12.591Z,8.21
2018-09-20T17:18:07.567Z,8.46
2018-09-20T17:24:02.595Z,7.26
2018-09-20T17:29:57.641Z,8.03
2018-09-20T17:35:52.591Z,7.2
2018-09-20T17:41:47.617Z,9.24
2018-09-20T17:47:42.615Z,7.59
2018-09-20T17:53:37.649Z,9.39
2018-09-20T17:59:32.624Z,7.72
2018-09-20T18:05:27.683Z,7.55
2018-09-20T18:11:22.669Z,8.85
2018-09-20T18:17:17.641Z,8.78
2018-09-20T18:23:12.665Z,8.82
2018-09-20T18:29:07.655Z,9.65
2018-09-20T18:35:02.701Z,9.21
2018-09-20T18:40:57.686Z,8.1
2018-09-20T18:46:52.715Z,8.91
2018-09-20T18:52:47.724Z,9.48
2018-09-20T18:58:42.694Z,8.64
2018-09-20T19:04:37.702Z,8.39
2018-09-20T19:10:32.688Z,11.85
2018-09-20T19:16:27.754Z,8.9
2018-09-20T19:22:22.736Z,10.15
2018-09-20T19:28:17.711Z,9.89
